sensor_id;sensor_type;location;lat;lon;timestamp;temperature;humidity
52103;DHT22;38101;53.126;6.878;2023-11-21T00:00:13;9.50;99.90
52103;DHT22;38101;53.126;6.878;2023-11-21T00:02:41;9.50;99.90
52103;DHT22;38101;53.126;6.878;2023-11-21T00:05:11;9.50;99.90
52103;DHT22;38101;53.126;6.878;2023-11-21T00:07:38;9.50;99.90
52103;DHT22;38101;53.126;6.878;2023-11-21T00:10:04;9.50;99.90
52103;DHT22;38101;53.126;6.878;2023-11-21T00:12:34;9.50;99.90
52103;DHT22;38101;53.126;6.878;2023-11-21T00:15:00;9.50;99.90
52103;DHT22;38101;53.126;6.878;2023-11-21T00:17:25;9.40;99.90
52103;DHT22;38101;53.126;6.878;2023-11-21T00:19:51;9.50;99.90
52103;DHT22;38101;53.126;6.878;2023-11-21T00:22:18;9.50;99.90
52103;DHT22;38101;53.126;6.878;2023-11-21T00:24:44;9.50;99.90
52103;DHT22;38101;53.126;6.878;2023-11-21T00:27:10;9.40;99.90
52103;DHT22;38101;53.126;6.878;2023-11-21T00:29:35;9.40;99.90
52103;DHT22;38101;53.126;6.878;2023-11-21T00:32:01;9.40;99.90
52103;DHT22;38101;53.126;6.878;2023-11-21T00:34:27;9.40;99.90
52103;DHT22;38101;53.126;6.878;2023-11-21T00:36:53;9.40;99.90
52103;DHT22;38101;53.126;6.878;2023-11-21T00:39:18;9.50;99.90
52103;DHT22;38101;53.126;6.878;2023-11-21T00:41:44;9.40;99.90
52103;DHT22;38101;53.126;6.878;2023-11-21T00:44:10;9.40;99.90
52103;DHT22;38101;53.126;6.878;2023-11-21T00:46:36;9.30;99.90
52103;DHT22;38101;53.126;6.878;2023-11-21T00:49:02;9.40;99.90
52103;DHT22;38101;53.126;6.878;2023-11-21T00:51:30;9.40;99.90
52103;DHT22;38101;53.126;6.878;2023-11-21T00:53:55;9.30;99.90
52103;DHT22;38101;53.126;6.878;2023-11-21T00:56:21;9.30;99.90
52103;DHT22;38101;53.126;6.878;2023-11-21T00:58:47;9.30;99.90
52103;DHT22;38101;53.126;6.878;2023-11-21T01:01:16;9.20;99.90
52103;DHT22;38101;53.126;6.878;2023-11-21T01:03:42;9.30;99.90
52103;DHT22;38101;53.126;6.878;2023-11-21T01:06:08;9.20;99.90
52103;DHT22;38101;53.126;6.878;2023-11-21T01:08:34;9.30;99.90
52103;DHT22;38101;53.126;6.878;2023-11-21T01:11:01;9.30;99.90
52103;DHT22;38101;53.126;6.878;2023-11-21T01:13:27;9.30;99.90
52103;DHT22;38101;53.126;6.878;2023-11-21T01:15:54;9.20;99.90
52103;DHT22;38101;53.126;6.878;2023-11-21T01:18:19;9.30;99.90
52103;DHT22;38101;53.126;6.878;2023-11-21T01:20:45;9.30;99.90
52103;DHT22;38101;53.126;6.878;2023-11-21T01:23:15;9.30;99.90
52103;DHT22;38101;53.126;6.878;2023-11-21T01:25:41;9.30;99.90
52103;DHT22;38101;53.126;6.878;2023-11-21T01:28:07;9.30;99.90
52103;DHT22;38101;53.126;6.878;2023-11-21T01:30:32;9.30;99.90
52103;DHT22;38101;53.126;6.878;2023-11-21T01:32:58;9.30;99.90
52103;DHT22;38101;53.126;6.878;2023-11-21T01:35:24;9.40;99.90
52103;DHT22;38101;53.126;6.878;2023-11-21T01:37:50;9.40;99.90
52103;DHT22;38101;53.126;6.878;2023-11-21T01:40:16;9.40;99.90
52103;DHT22;38101;53.126;6.878;2023-11-21T01:42:42;9.40;99.90
52103;DHT22;38101;53.126;6.878;2023-11-21T01:45:09;9.40;99.90
52103;DHT22;38101;53.126;6.878;2023-11-21T01:47:36;9.40;99.90
52103;DHT22;38101;53.126;6.878;2023-11-21T01:50:03;9.50;99.90
52103;DHT22;38101;53.126;6.878;2023-11-21T01:52:32;9.40;99.90
52103;DHT22;38101;53.126;6.878;2023-11-21T01:54:59;9.40;99.90
52103;DHT22;38101;53.126;6.878;2023-11-21T01:57:25;9.50;99.90
52103;DHT22;38101;53.126;6.878;2023-11-21T01:59:54;9.50;99.90
52103;DHT22;38101;53.126;6.878;2023-11-21T02:02:19;9.50;99.90
52103;DHT22;38101;53.126;6.878;2023-11-21T02:04:45;9.50;99.90
52103;DHT22;38101;53.126;6.878;2023-11-21T02:07:11;9.50;99.90
52103;DHT22;38101;53.126;6.878;2023-11-21T02:09:37;9.50;99.90
52103;DHT22;38101;53.126;6.878;2023-11-21T02:12:08;9.60;99.90
52103;DHT22;38101;53.126;6.878;2023-11-21T02:14:36;9.50;99.90
52103;DHT22;38101;53.126;6.878;2023-11-21T02:17:02;9.50;99.90
52103;DHT22;38101;53.126;6.878;2023-11-21T02:19:29;9.50;99.90
52103;DHT22;38101;53.126;6.878;2023-11-21T02:21:57;9.50;99.90
52103;DHT22;38101;53.126;6.878;2023-11-21T02:24:29;9.50;99.90
52103;DHT22;38101;53.126;6.878;2023-11-21T02:26:54;9.50;99.90
52103;DHT22;38101;53.126;6.878;2023-11-21T02:29:21;9.50;99.90
52103;DHT22;38101;53.126;6.878;2023-11-21T02:31:55;9.50;99.90
52103;DHT22;38101;53.126;6.878;2023-11-21T02:34:21;9.50;99.90
52103;DHT22;38101;53.126;6.878;2023-11-21T02:36:47;9.50;99.90
52103;DHT22;38101;53.126;6.878;2023-11-21T02:39:17;9.50;99.90
52103;DHT22;38101;53.126;6.878;2023-11-21T02:41:43;9.50;99.90
52103;DHT22;38101;53.126;6.878;2023-11-21T02:44:09;9.50;99.90
52103;DHT22;38101;53.126;6.878;2023-11-21T02:46:36;9.50;99.90
52103;DHT22;38101;53.126;6.878;2023-11-21T02:49:05;9.50;99.90
52103;DHT22;38101;53.126;6.878;2023-11-21T02:51:36;9.40;99.90
52103;DHT22;38101;53.126;6.878;2023-11-21T02:54:03;9.50;99.90
52103;DHT22;38101;53.126;6.878;2023-11-21T02:56:32;9.50;99.90
52103;DHT22;38101;53.126;6.878;2023-11-21T02:58:59;9.50;99.90
52103;DHT22;38101;53.126;6.878;2023-11-21T03:01:25;9.50;99.90
52103;DHT22;38101;53.126;6.878;2023-11-21T03:03:51;9.40;99.90
52103;DHT22;38101;53.126;6.878;2023-11-21T03:06:18;9.50;99.90
52103;DHT22;38101;53.126;6.878;2023-11-21T03:08:44;9.50;99.90
52103;DHT22;38101;53.126;6.878;2023-11-21T03:11:09;9.50;99.90
52103;DHT22;38101;53.126;6.878;2023-11-21T03:13:35;9.50;99.90
52103;DHT22;38101;53.126;6.878;2023-11-21T03:16:01;9.50;99.90
52103;DHT22;38101;53.126;6.878;2023-11-21T03:18:26;9.50;99.90
52103;DHT22;38101;53.126;6.878;2023-11-21T03:20:54;9.50;99.90
52103;DHT22;38101;53.126;6.878;2023-11-21T03:23:20;9.50;99.90
52103;DHT22;38101;53.126;6.878;2023-11-21T03:25:46;9.50;99.90
52103;DHT22;38101;53.126;6.878;2023-11-21T03:28:11;9.50;99.90
52103;DHT22;38101;53.126;6.878;2023-11-21T03:30:37;9.50;99.90
52103;DHT22;38101;53.126;6.878;2023-11-21T03:33:03;9.50;99.90
52103;DHT22;38101;53.126;6.878;2023-11-21T03:35:28;9.50;99.90
52103;DHT22;38101;53.126;6.878;2023-11-21T03:37:54;9.50;99.90
52103;DHT22;38101;53.126;6.878;2023-11-21T03:40:20;9.50;99.90
52103;DHT22;38101;53.126;6.878;2023-11-21T03:42:48;9.40;99.90
52103;DHT22;38101;53.126;6.878;2023-11-21T03:45:14;9.50;99.90
52103;DHT22;38101;53.126;6.878;2023-11-21T03:47:41;9.50;99.90
52103;DHT22;38101;53.126;6.878;2023-11-21T03:50:07;9.50;99.90
52103;DHT22;38101;53.126;6.878;2023-11-21T03:52:34;9.50;99.90
52103;DHT22;38101;53.126;6.878;2023-11-21T03:55:01;9.50;99.90
52103;DHT22;38101;53.126;6.878;2023-11-21T03:57:27;9.50;99.90
52103;DHT22;38101;53.126;6.878;2023-11-21T03:59:53;9.50;99.90
52103;DHT22;38101;53.126;6.878;2023-11-21T04:02:19;9.50;99.90
52103;DHT22;38101;53.126;6.878;2023-11-21T04:04:45;9.50;99.90
52103;DHT22;38101;53.126;6.878;2023-11-21T04:07:11;9.50;99.90
52103;DHT22;38101;53.126;6.878;2023-11-21T04:09:39;9.50;99.90
52103;DHT22;38101;53.126;6.878;2023-11-21T04:12:05;9.50;99.90
52103;DHT22;38101;53.126;6.878;2023-11-21T04:14:31;9.50;99.90
52103;DHT22;38101;53.126;6.878;2023-11-21T04:16:57;9.50;99.90
52103;DHT22;38101;53.126;6.878;2023-11-21T04:19:22;9.50;99.90
52103;DHT22;38101;53.126;6.878;2023-11-21T04:21:48;9.50;99.90
52103;DHT22;38101;53.126;6.878;2023-11-21T04:24:14;9.50;99.90
52103;DHT22;38101;53.126;6.878;2023-11-21T04:26:40;9.50;99.90
52103;DHT22;38101;53.126;6.878;2023-11-21T04:29:06;9.50;99.90
52103;DHT22;38101;53.126;6.878;2023-11-21T04:31:31;9.50;99.90
52103;DHT22;38101;53.126;6.878;2023-11-21T04:33:57;9.50;99.90
52103;DHT22;38101;53.126;6.878;2023-11-21T04:36:23;9.50;99.90
52103;DHT22;38101;53.126;6.878;2023-11-21T04:38:48;9.50;99.90
52103;DHT22;38101;53.126;6.878;2023-11-21T04:41:14;9.40;99.90
52103;DHT22;38101;53.126;6.878;2023-11-21T04:43:40;9.50;99.90
52103;DHT22;38101;53.126;6.878;2023-11-21T04:46:05;9.40;99.90
52103;DHT22;38101;53.126;6.878;2023-11-21T04:48:32;9.40;99.90
52103;DHT22;38101;53.126;6.878;2023-11-21T04:50:58;9.40;99.90
52103;DHT22;38101;53.126;6.878;2023-11-21T04:53:24;9.40;99.90
52103;DHT22;38101;53.126;6.878;2023-11-21T04:55:49;9.40;99.90
52103;DHT22;38101;53.126;6.878;2023-11-21T04:58:15;9.40;99.90
52103;DHT22;38101;53.126;6.878;2023-11-21T05:00:41;9.40;99.90
52103;DHT22;38101;53.126;6.878;2023-11-21T05:03:07;9.40;99.90
52103;DHT22;38101;53.126;6.878;2023-11-21T05:05:33;9.50;99.90
52103;DHT22;38101;53.126;6.878;2023-11-21T05:08:01;9.50;99.90
52103;DHT22;38101;53.126;6.878;2023-11-21T05:10:28;9.50;99.90
52103;DHT22;38101;53.126;6.878;2023-11-21T05:12:54;9.50;99.90
52103;DHT22;38101;53.126;6.878;2023-11-21T05:15:21;9.50;99.90
52103;DHT22;38101;53.126;6.878;2023-11-21T05:17:47;9.50;99.90
52103;DHT22;38101;53.126;6.878;2023-11-21T05:20:16;9.40;99.90
52103;DHT22;38101;53.126;6.878;2023-11-21T05:22:50;9.50;99.90
52103;DHT22;38101;53.126;6.878;2023-11-21T05:25:16;9.50;99.90
52103;DHT22;38101;53.126;6.878;2023-11-21T05:27:45;9.50;99.90
52103;DHT22;38101;53.126;6.878;2023-11-21T05:30:11;9.50;99.90
52103;DHT22;38101;53.126;6.878;2023-11-21T05:32:37;9.50;99.90
52103;DHT22;38101;53.126;6.878;2023-11-21T05:35:04;9.60;99.90
52103;DHT22;38101;53.126;6.878;2023-11-21T05:37:35;9.50;99.90
52103;DHT22;38101;53.126;6.878;2023-11-21T05:40:01;9.60;99.90
52103;DHT22;38101;53.126;6.878;2023-11-21T05:42:32;9.50;99.90
52103;DHT22;38101;53.126;6.878;2023-11-21T05:44:58;9.50;99.90
52103;DHT22;38101;53.126;6.878;2023-11-21T05:47:44;9.60;99.90
52103;DHT22;38101;53.126;6.878;2023-11-21T05:50:15;9.50;99.90
52103;DHT22;38101;53.126;6.878;2023-11-21T05:52:42;9.60;99.90
52103;DHT22;38101;53.126;6.878;2023-11-21T05:55:08;9.50;99.90
52103;DHT22;38101;53.126;6.878;2023-11-21T05:57:35;9.60;99.90
52103;DHT22;38101;53.126;6.878;2023-11-21T06:00:06;9.60;99.90
52103;DHT22;38101;53.126;6.878;2023-11-21T06:02:44;9.50;99.90
52103;DHT22;38101;53.126;6.878;2023-11-21T06:05:10;9.50;99.90
52103;DHT22;38101;53.126;6.878;2023-11-21T06:07:37;9.60;99.90
52103;DHT22;38101;53.126;6.878;2023-11-21T06:10:04;9.50;99.90
52103;DHT22;38101;53.126;6.878;2023-11-21T06:12:37;9.60;99.90
52103;DHT22;38101;53.126;6.878;2023-11-21T06:15:04;9.60;99.90
52103;DHT22;38101;53.126;6.878;2023-11-21T06:17:33;9.60;99.90
52103;DHT22;38101;53.126;6.878;2023-11-21T06:20:02;9.60;99.90
52103;DHT22;38101;53.126;6.878;2023-11-21T06:22:37;9.60;99.90
52103;DHT22;38101;53.126;6.878;2023-11-21T06:25:04;9.60;99.90
52103;DHT22;38101;53.126;6.878;2023-11-21T06:27:32;9.60;99.90
52103;DHT22;38101;53.126;6.878;2023-11-21T06:29:58;9.60;99.90
52103;DHT22;38101;53.126;6.878;2023-11-21T06:32:24;9.60;99.90
52103;DHT22;38101;53.126;6.878;2023-11-21T06:34:49;9.60;99.90
52103;DHT22;38101;53.126;6.878;2023-11-21T06:37:15;9.60;99.90
52103;DHT22;38101;53.126;6.878;2023-11-21T06:39:42;9.50;99.90
52103;DHT22;38101;53.126;6.878;2023-11-21T06:42:08;9.50;99.90
52103;DHT22;38101;53.126;6.878;2023-11-21T06:44:33;9.40;99.90
52103;DHT22;38101;53.126;6.878;2023-11-21T06:47:00;9.50;99.90
52103;DHT22;38101;53.126;6.878;2023-11-21T06:49:26;9.50;99.90
52103;DHT22;38101;53.126;6.878;2023-11-21T06:51:52;9.50;99.90
52103;DHT22;38101;53.126;6.878;2023-11-21T06:54:18;9.50;99.90
52103;DHT22;38101;53.126;6.878;2023-11-21T06:56:44;9.40;99.90
52103;DHT22;38101;53.126;6.878;2023-11-21T06:59:10;9.40;99.90
52103;DHT22;38101;53.126;6.878;2023-11-21T07:01:36;9.40;99.90
52103;DHT22;38101;53.126;6.878;2023-11-21T07:04:05;9.40;99.90
52103;DHT22;38101;53.126;6.878;2023-11-21T07:06:31;9.30;99.90
52103;DHT22;38101;53.126;6.878;2023-11-21T07:08:57;9.30;99.90
52103;DHT22;38101;53.126;6.878;2023-11-21T07:11:24;9.30;99.90
52103;DHT22;38101;53.126;6.878;2023-11-21T07:13:50;9.30;99.90
52103;DHT22;38101;53.126;6.878;2023-11-21T07:16:16;9.30;99.90
52103;DHT22;38101;53.126;6.878;2023-11-21T07:18:42;9.30;99.90
52103;DHT22;38101;53.126;6.878;2023-11-21T07:21:08;9.30;99.90
52103;DHT22;38101;53.126;6.878;2023-11-21T07:23:34;9.30;99.90
52103;DHT22;38101;53.126;6.878;2023-11-21T07:26:00;9.30;99.90
52103;DHT22;38101;53.126;6.878;2023-11-21T07:28:25;9.30;99.90
52103;DHT22;38101;53.126;6.878;2023-11-21T07:30:51;9.30;99.90
52103;DHT22;38101;53.126;6.878;2023-11-21T07:33:18;9.30;99.90
52103;DHT22;38101;53.126;6.878;2023-11-21T07:35:43;9.30;99.90
52103;DHT22;38101;53.126;6.878;2023-11-21T07:38:09;9.30;99.90
52103;DHT22;38101;53.126;6.878;2023-11-21T07:40:35;9.20;99.90
52103;DHT22;38101;53.126;6.878;2023-11-21T07:43:01;9.30;99.90
52103;DHT22;38101;53.126;6.878;2023-11-21T07:45:26;9.30;99.90
52103;DHT22;38101;53.126;6.878;2023-11-21T07:47:54;9.30;99.90
52103;DHT22;38101;53.126;6.878;2023-11-21T07:50:21;9.20;99.90
52103;DHT22;38101;53.126;6.878;2023-11-21T07:52:48;9.20;99.90
52103;DHT22;38101;53.126;6.878;2023-11-21T07:55:15;9.20;99.90
52103;DHT22;38101;53.126;6.878;2023-11-21T07:57:41;9.20;99.90
52103;DHT22;38101;53.126;6.878;2023-11-21T08:00:08;9.10;99.90
52103;DHT22;38101;53.126;6.878;2023-11-21T08:02:34;9.10;99.90
52103;DHT22;38101;53.126;6.878;2023-11-21T08:05:00;9.10;99.90
52103;DHT22;38101;53.126;6.878;2023-11-21T08:07:26;9.10;99.90
52103;DHT22;38101;53.126;6.878;2023-11-21T08:09:52;9.20;99.90
52103;DHT22;38101;53.126;6.878;2023-11-21T08:12:18;9.10;99.90
52103;DHT22;38101;53.126;6.878;2023-11-21T08:14:45;9.10;99.90
52103;DHT22;38101;53.126;6.878;2023-11-21T08:17:11;9.10;99.90
52103;DHT22;38101;53.126;6.878;2023-11-21T08:19:37;9.10;99.90
52103;DHT22;38101;53.126;6.878;2023-11-21T08:22:03;9.20;99.90
52103;DHT22;38101;53.126;6.878;2023-11-21T08:24:29;9.10;99.90
52103;DHT22;38101;53.126;6.878;2023-11-21T08:26:55;9.10;99.90
52103;DHT22;38101;53.126;6.878;2023-11-21T08:29:20;9.10;99.90
52103;DHT22;38101;53.126;6.878;2023-11-21T08:31:47;9.10;99.90
52103;DHT22;38101;53.126;6.878;2023-11-21T08:34:13;9.10;99.90
52103;DHT22;38101;53.126;6.878;2023-11-21T08:36:43;9.10;99.90
52103;DHT22;38101;53.126;6.878;2023-11-21T08:39:09;9.10;99.90
52103;DHT22;38101;53.126;6.878;2023-11-21T08:41:35;9.10;99.90
52103;DHT22;38101;53.126;6.878;2023-11-21T08:44:02;9.10;99.90
52103;DHT22;38101;53.126;6.878;2023-11-21T08:46:33;9.10;99.90
52103;DHT22;38101;53.126;6.878;2023-11-21T08:49:01;9.10;99.90
52103;DHT22;38101;53.126;6.878;2023-11-21T08:51:26;9.10;99.90
52103;DHT22;38101;53.126;6.878;2023-11-21T08:53:52;9.10;99.90
52103;DHT22;38101;53.126;6.878;2023-11-21T08:56:18;9.10;99.90
52103;DHT22;38101;53.126;6.878;2023-11-21T08:58:45;9.10;99.90
52103;DHT22;38101;53.126;6.878;2023-11-21T09:01:12;9.10;99.90
52103;DHT22;38101;53.126;6.878;2023-11-21T09:03:38;9.10;99.90
52103;DHT22;38101;53.126;6.878;2023-11-21T09:06:04;9.10;99.90
52103;DHT22;38101;53.126;6.878;2023-11-21T09:08:30;9.10;99.90
52103;DHT22;38101;53.126;6.878;2023-11-21T09:10:57;9.10;99.90
52103;DHT22;38101;53.126;6.878;2023-11-21T09:13:23;9.10;99.90
52103;DHT22;38101;53.126;6.878;2023-11-21T09:15:50;9.10;99.90
52103;DHT22;38101;53.126;6.878;2023-11-21T09:18:16;9.10;99.90
52103;DHT22;38101;53.126;6.878;2023-11-21T09:20:42;9.10;99.90
52103;DHT22;38101;53.126;6.878;2023-11-21T09:23:11;9.10;99.90
52103;DHT22;38101;53.126;6.878;2023-11-21T09:25:37;9.10;99.90
52103;DHT22;38101;53.126;6.878;2023-11-21T09:28:06;9.20;99.90
52103;DHT22;38101;53.126;6.878;2023-11-21T09:30:34;9.10;99.90
52103;DHT22;38101;53.126;6.878;2023-11-21T09:33:01;9.20;99.90
52103;DHT22;38101;53.126;6.878;2023-11-21T09:35:27;9.10;99.90
52103;DHT22;38101;53.126;6.878;2023-11-21T09:37:53;9.10;99.90
52103;DHT22;38101;53.126;6.878;2023-11-21T09:40:21;9.10;99.90
52103;DHT22;38101;53.126;6.878;2023-11-21T09:42:57;9.10;99.90
52103;DHT22;38101;53.126;6.878;2023-11-21T09:45:27;9.20;99.90
52103;DHT22;38101;53.126;6.878;2023-11-21T09:47:56;9.10;99.90
52103;DHT22;38101;53.126;6.878;2023-11-21T09:50:23;9.10;99.90
52103;DHT22;38101;53.126;6.878;2023-11-21T09:55:21;9.00;99.90
52103;DHT22;38101;53.126;6.878;2023-11-21T09:57:50;9.10;99.90
52103;DHT22;38101;53.126;6.878;2023-11-21T10:00:16;9.10;99.90
52103;DHT22;38101;53.126;6.878;2023-11-21T10:02:43;9.10;99.90
52103;DHT22;38101;53.126;6.878;2023-11-21T10:05:09;9.10;99.90
52103;DHT22;38101;53.126;6.878;2023-11-21T10:07:37;9.20;99.90
52103;DHT22;38101;53.126;6.878;2023-11-21T10:10:05;9.20;99.90
52103;DHT22;38101;53.126;6.878;2023-11-21T10:12:31;9.20;99.90
52103;DHT22;38101;53.126;6.878;2023-11-21T10:14:58;9.20;99.90
52103;DHT22;38101;53.126;6.878;2023-11-21T10:17:28;9.30;99.90
52103;DHT22;38101;53.126;6.878;2023-11-21T10:20:03;9.30;99.90
52103;DHT22;38101;53.126;6.878;2023-11-21T10:22:31;9.30;99.90
52103;DHT22;38101;53.126;6.878;2023-11-21T10:24:57;9.30;99.90
52103;DHT22;38101;53.126;6.878;2023-11-21T10:27:23;9.40;99.90
52103;DHT22;38101;53.126;6.878;2023-11-21T10:29:51;9.40;99.90
52103;DHT22;38101;53.126;6.878;2023-11-21T10:32:17;9.40;99.90
52103;DHT22;38101;53.126;6.878;2023-11-21T10:34:55;9.40;99.90
52103;DHT22;38101;53.126;6.878;2023-11-21T10:37:20;9.40;99.90
52103;DHT22;38101;53.126;6.878;2023-11-21T10:39:46;9.40;99.90
52103;DHT22;38101;53.126;6.878;2023-11-21T10:42:11;9.40;99.90
52103;DHT22;38101;53.126;6.878;2023-11-21T10:44:37;9.40;99.90
52103;DHT22;38101;53.126;6.878;2023-11-21T10:47:03;9.40;99.90
52103;DHT22;38101;53.126;6.878;2023-11-21T10:49:29;9.50;99.90
52103;DHT22;38101;53.126;6.878;2023-11-21T10:51:55;9.50;99.90
52103;DHT22;38101;53.126;6.878;2023-11-21T10:54:22;9.50;99.90
52103;DHT22;38101;53.126;6.878;2023-11-21T10:56:50;9.50;99.90
52103;DHT22;38101;53.126;6.878;2023-11-21T10:59:17;9.50;99.90
52103;DHT22;38101;53.126;6.878;2023-11-21T11:01:45;9.50;99.90
52103;DHT22;38101;53.126;6.878;2023-11-21T11:04:12;9.50;99.90
52103;DHT22;38101;53.126;6.878;2023-11-21T11:06:46;9.50;99.90
52103;DHT22;38101;53.126;6.878;2023-11-21T11:09:17;9.50;99.90
52103;DHT22;38101;53.126;6.878;2023-11-21T11:11:43;9.50;99.90
52103;DHT22;38101;53.126;6.878;2023-11-21T11:14:13;9.50;99.90
52103;DHT22;38101;53.126;6.878;2023-11-21T11:16:42;9.50;99.90
52103;DHT22;38101;53.126;6.878;2023-11-21T11:19:11;9.60;99.90
52103;DHT22;38101;53.126;6.878;2023-11-21T11:21:50;9.60;99.90
52103;DHT22;38101;53.126;6.878;2023-11-21T11:32:33;9.60;99.90
52103;DHT22;38101;53.126;6.878;2023-11-21T11:35:08;9.70;99.90
52103;DHT22;38101;53.126;6.878;2023-11-21T11:37:36;9.60;99.90
52103;DHT22;38101;53.126;6.878;2023-11-21T11:40:06;9.60;99.90
52103;DHT22;38101;53.126;6.878;2023-11-21T11:42:32;9.60;99.90
52103;DHT22;38101;53.126;6.878;2023-11-21T11:44:58;9.50;99.90
52103;DHT22;38101;53.126;6.878;2023-11-21T11:47:25;9.60;99.90
52103;DHT22;38101;53.126;6.878;2023-11-21T11:55:19;9.60;99.90
52103;DHT22;38101;53.126;6.878;2023-11-21T11:57:48;9.60;99.90
52103;DHT22;38101;53.126;6.878;2023-11-21T12:00:23;9.70;99.90
52103;DHT22;38101;53.126;6.878;2023-11-21T12:03:01;9.70;99.90
52103;DHT22;38101;53.126;6.878;2023-11-21T12:05:30;9.80;99.90
52103;DHT22;38101;53.126;6.878;2023-11-21T12:08:06;9.80;99.90
52103;DHT22;38101;53.126;6.878;2023-11-21T12:10:34;9.80;99.90
52103;DHT22;38101;53.126;6.878;2023-11-21T12:13:01;9.80;99.90
52103;DHT22;38101;53.126;6.878;2023-11-21T12:15:27;9.80;99.90
52103;DHT22;38101;53.126;6.878;2023-11-21T12:17:57;9.90;99.90
52103;DHT22;38101;53.126;6.878;2023-11-21T12:20:25;9.90;99.90
52103;DHT22;38101;53.126;6.878;2023-11-21T12:22:52;9.90;99.90
52103;DHT22;38101;53.126;6.878;2023-11-21T12:25:23;9.90;99.90
52103;DHT22;38101;53.126;6.878;2023-11-21T12:27:51;9.90;99.90
52103;DHT22;38101;53.126;6.878;2023-11-21T12:30:22;9.90;99.90
52103;DHT22;38101;53.126;6.878;2023-11-21T12:32:52;9.90;99.90
52103;DHT22;38101;53.126;6.878;2023-11-21T12:35:26;10.00;99.90
52103;DHT22;38101;53.126;6.878;2023-11-21T12:37:53;10.00;99.90
52103;DHT22;38101;53.126;6.878;2023-11-21T12:40:20;10.00;99.90
52103;DHT22;38101;53.126;6.878;2023-11-21T12:42:51;10.00;99.90
52103;DHT22;38101;53.126;6.878;2023-11-21T12:47:48;10.00;99.90
52103;DHT22;38101;53.126;6.878;2023-11-21T12:50:23;10.10;99.90
52103;DHT22;38101;53.126;6.878;2023-11-21T12:52:52;10.20;99.90
52103;DHT22;38101;53.126;6.878;2023-11-21T12:55:22;10.30;99.90
52103;DHT22;38101;53.126;6.878;2023-11-21T12:57:50;10.40;99.90
52103;DHT22;38101;53.126;6.878;2023-11-21T13:00:18;10.40;99.90
52103;DHT22;38101;53.126;6.878;2023-11-21T13:02:55;10.40;99.90
52103;DHT22;38101;53.126;6.878;2023-11-21T13:05:36;10.30;99.90
52103;DHT22;38101;53.126;6.878;2023-11-21T13:08:06;10.20;99.90
52103;DHT22;38101;53.126;6.878;2023-11-21T13:10:35;10.20;99.90
52103;DHT22;38101;53.126;6.878;2023-11-21T13:13:06;10.20;99.90
52103;DHT22;38101;53.126;6.878;2023-11-21T13:15:34;10.10;99.90
52103;DHT22;38101;53.126;6.878;2023-11-21T13:18:02;10.00;99.90
52103;DHT22;38101;53.126;6.878;2023-11-21T13:20:29;9.90;99.90
52103;DHT22;38101;53.126;6.878;2023-11-21T13:22:56;9.80;99.90
52103;DHT22;38101;53.126;6.878;2023-11-21T13:25:27;9.80;99.90
52103;DHT22;38101;53.126;6.878;2023-11-21T13:27:59;9.70;99.90
52103;DHT22;38101;53.126;6.878;2023-11-21T13:30:26;9.60;99.90
52103;DHT22;38101;53.126;6.878;2023-11-21T13:32:56;9.60;99.90
52103;DHT22;38101;53.126;6.878;2023-11-21T13:35:25;9.50;99.90
52103;DHT22;38101;53.126;6.878;2023-11-21T13:38:08;9.50;99.90
52103;DHT22;38101;53.126;6.878;2023-11-21T13:40:35;9.50;99.90
52103;DHT22;38101;53.126;6.878;2023-11-21T13:43:09;9.50;99.90
52103;DHT22;38101;53.126;6.878;2023-11-21T13:45:45;9.40;99.90
52103;DHT22;38101;53.126;6.878;2023-11-21T13:48:12;9.40;99.90
52103;DHT22;38101;53.126;6.878;2023-11-21T13:50:53;9.40;99.90
52103;DHT22;38101;53.126;6.878;2023-11-21T13:53:26;9.40;99.90
52103;DHT22;38101;53.126;6.878;2023-11-21T13:55:53;9.40;99.90
52103;DHT22;38101;53.126;6.878;2023-11-21T13:58:26;9.40;99.90
52103;DHT22;38101;53.126;6.878;2023-11-21T14:01:07;9.40;99.90
52103;DHT22;38101;53.126;6.878;2023-11-21T14:03:42;9.40;99.90
52103;DHT22;38101;53.126;6.878;2023-11-21T14:06:17;9.40;99.90
52103;DHT22;38101;53.126;6.878;2023-11-21T14:08:50;9.30;99.90
52103;DHT22;38101;53.126;6.878;2023-11-21T14:11:16;9.30;99.90
52103;DHT22;38101;53.126;6.878;2023-11-21T14:13:44;9.30;99.90
52103;DHT22;38101;53.126;6.878;2023-11-21T14:16:13;9.30;99.90
52103;DHT22;38101;53.126;6.878;2023-11-21T14:18:39;9.30;99.90
52103;DHT22;38101;53.126;6.878;2023-11-21T14:21:21;9.30;99.90
52103;DHT22;38101;53.126;6.878;2023-11-21T14:23:47;9.20;99.90
52103;DHT22;38101;53.126;6.878;2023-11-21T14:26:13;9.10;99.90
52103;DHT22;38101;53.126;6.878;2023-11-21T14:28:41;9.10;99.90
52103;DHT22;38101;53.126;6.878;2023-11-21T14:31:07;9.10;99.90
52103;DHT22;38101;53.126;6.878;2023-11-21T14:33:38;9.10;99.90
52103;DHT22;38101;53.126;6.878;2023-11-21T14:36:05;9.10;99.90
52103;DHT22;38101;53.126;6.878;2023-11-21T14:38:33;9.10;99.90
52103;DHT22;38101;53.126;6.878;2023-11-21T14:40:59;9.00;99.90
52103;DHT22;38101;53.126;6.878;2023-11-21T14:43:25;9.00;99.90
52103;DHT22;38101;53.126;6.878;2023-11-21T14:45:52;9.00;99.90
52103;DHT22;38101;53.126;6.878;2023-11-21T14:48:21;8.90;99.90
52103;DHT22;38101;53.126;6.878;2023-11-21T14:51:05;8.90;99.90
52103;DHT22;38101;53.126;6.878;2023-11-21T14:53:31;8.80;99.90
52103;DHT22;38101;53.126;6.878;2023-11-21T14:56:22;8.80;99.90
52103;DHT22;38101;53.126;6.878;2023-11-21T14:58:58;8.70;99.90
52103;DHT22;38101;53.126;6.878;2023-11-21T15:01:53;8.70;99.90
52103;DHT22;38101;53.126;6.878;2023-11-21T15:04:22;8.80;99.90
52103;DHT22;38101;53.126;6.878;2023-11-21T15:07:05;8.70;99.90
52103;DHT22;38101;53.126;6.878;2023-11-21T15:09:31;8.70;99.90
52103;DHT22;38101;53.126;6.878;2023-11-21T15:12:00;8.70;99.90
52103;DHT22;38101;53.126;6.878;2023-11-21T15:17:06;8.70;99.90
52103;DHT22;38101;53.126;6.878;2023-11-21T15:19:33;8.70;99.90
52103;DHT22;38101;53.126;6.878;2023-11-21T15:22:00;8.60;99.90
52103;DHT22;38101;53.126;6.878;2023-11-21T15:24:25;8.60;99.90
52103;DHT22;38101;53.126;6.878;2023-11-21T15:26:51;8.60;99.90
52103;DHT22;38101;53.126;6.878;2023-11-21T15:29:17;8.60;99.90
52103;DHT22;38101;53.126;6.878;2023-11-21T15:31:43;8.50;99.90
52103;DHT22;38101;53.126;6.878;2023-11-21T15:34:14;8.60;99.90
52103;DHT22;38101;53.126;6.878;2023-11-21T15:36:40;8.50;99.90
52103;DHT22;38101;53.126;6.878;2023-11-21T15:39:06;8.50;99.90
52103;DHT22;38101;53.126;6.878;2023-11-21T15:41:33;8.50;99.90
52103;DHT22;38101;53.126;6.878;2023-11-21T15:43:59;8.30;99.90
52103;DHT22;38101;53.126;6.878;2023-11-21T15:46:25;8.30;99.90
52103;DHT22;38101;53.126;6.878;2023-11-21T15:48:50;8.30;99.90
52103;DHT22;38101;53.126;6.878;2023-11-21T15:51:20;8.20;99.90
52103;DHT22;38101;53.126;6.878;2023-11-21T15:53:45;8.20;99.90
52103;DHT22;38101;53.126;6.878;2023-11-21T15:56:11;8.10;99.90
52103;DHT22;38101;53.126;6.878;2023-11-21T15:58:41;8.10;99.90
52103;DHT22;38101;53.126;6.878;2023-11-21T16:01:11;8.00;99.90
52103;DHT22;38101;53.126;6.878;2023-11-21T16:03:39;7.90;99.90
52103;DHT22;38101;53.126;6.878;2023-11-21T16:06:05;7.90;99.90
52103;DHT22;38101;53.126;6.878;2023-11-21T16:08:31;7.80;99.90